Time;durP1;ratioP1;P1;durP2;ratioP2;P2;SDS_P1;SDS_P2;PMS_P1;PMS_P2;Temp;Humidity;BMP_temperature;BMP_pressure;BME280_temperature;BME280_humidity;BME280_pressure;Samples;Min_cycle;Max_cycle;Signal;HPM_P1;HPM_P2
2021/10/25 00:01:32;;;;;;;7.15;4.65;;;;;;;;;;5045353;28;20033;-75
2021/10/25 00:03:57;;;;;;;6.93;4.28;;;;;;;;;;5046167;28;20029;-75
2021/10/25 00:06:23;;;;;;;9.13;4.45;;;;;;;;;;5047483;28;20452;-74
2021/10/25 00:08:48;;;;;;;6.50;4.15;;;;;;;;;;5043754;28;20436;-75
2021/10/25 00:11:13;;;;;;;7.32;4.50;;;;;;;;;;5044191;28;20017;-74
2021/10/25 00:13:39;;;;;;;6.68;4.28;;;;;;;;;;5044114;28;20369;-75
2021/10/25 00:16:04;;;;;;;7.47;4.63;;;;;;;;;;5035735;28;20341;-74
2021/10/25 00:18:29;;;;;;;7.28;4.32;;;;;;;;;;5042509;28;20039;-75
2021/10/25 00:20:55;;;;;;;6.00;4.30;;;;;;;;;;5046867;28;20086;-74
2021/10/25 00:23:20;;;;;;;6.70;4.78;;;;;;;;;;5046517;28;20507;-75
2021/10/25 00:25:45;;;;;;;5.75;4.68;;;;;;;;;;5046308;28;20472;-74
2021/10/25 00:28:10;;;;;;;6.85;4.43;;;;;;;;;;5043687;28;20103;-75
2021/10/25 00:30:35;;;;;;;7.07;4.50;;;;;;;;;;5051646;28;20051;-75
2021/10/25 00:33:01;;;;;;;6.97;4.55;;;;;;;;;;5046613;28;20025;-75
2021/10/25 00:35:26;;;;;;;7.60;4.15;;;;;;;;;;5048732;28;20048;-74
2021/10/25 00:37:51;;;;;;;6.68;4.22;;;;;;;;;;5048496;28;20032;-75
2021/10/25 00:40:16;;;;;;;6.68;4.40;;;;;;;;;;5045454;28;20017;-75
2021/10/25 00:42:42;;;;;;;6.90;4.32;;;;;;;;;;5049533;28;20029;-75
2021/10/25 00:45:07;;;;;;;5.60;3.80;;;;;;;;;;5047904;28;20017;-75
2021/10/25 00:47:32;;;;;;;7.03;4.18;;;;;;;;;;5037244;28;20556;-74
2021/10/25 00:49:57;;;;;;;7.68;4.82;;;;;;;;;;5054199;28;20053;-75
2021/10/25 00:52:23;;;;;;;8.07;4.63;;;;;;;;;;5050427;28;20025;-74
2021/10/25 00:54:48;;;;;;;7.53;4.93;;;;;;;;;;5047109;28;20025;-74
2021/10/25 00:57:13;;;;;;;7.35;5.13;;;;;;;;;;5046069;28;20136;-75
2021/10/25 00:59:39;;;;;;;6.95;4.55;;;;;;;;;;5056219;28;20051;-74
2021/10/25 01:02:04;;;;;;;7.30;4.85;;;;;;;;;;5051180;28;20036;-74
2021/10/25 01:04:31;;;;;;;7.72;4.40;;;;;;;;;;5043344;28;20057;-75
2021/10/25 01:06:57;;;;;;;6.53;4.30;;;;;;;;;;5050470;28;20033;-75
2021/10/25 01:09:22;;;;;;;8.85;4.68;;;;;;;;;;5049929;28;20374;-74
2021/10/25 01:11:48;;;;;;;6.05;4.63;;;;;;;;;;5043082;28;20025;-75
2021/10/25 01:14:15;;;;;;;8.20;4.80;;;;;;;;;;5049919;28;20028;-76
2021/10/25 01:16:40;;;;;;;8.23;4.85;;;;;;;;;;5046962;28;20032;-73
2021/10/25 01:19:05;;;;;;;7.57;5.18;;;;;;;;;;5050459;28;20774;-73
2021/10/25 01:21:30;;;;;;;6.97;4.78;;;;;;;;;;5048495;28;20017;-74
2021/10/25 01:23:55;;;;;;;6.25;4.30;;;;;;;;;;5039585;28;20030;-75
2021/10/25 01:26:24;;;;;;;8.10;4.80;;;;;;;;;;5048987;28;20021;-75
2021/10/25 01:28:50;;;;;;;7.53;5.20;;;;;;;;;;5049034;28;20022;-75
2021/10/25 01:31:16;;;;;;;6.65;4.80;;;;;;;;;;5048185;28;20395;-74
2021/10/25 01:33:43;;;;;;;8.00;4.80;;;;;;;;;;5043171;28;20085;-74
2021/10/25 01:36:08;;;;;;;7.85;4.38;;;;;;;;;;5046703;28;20033;-76
2021/10/25 01:38:33;;;;;;;8.77;4.93;;;;;;;;;;5046528;28;20021;-74
2021/10/25 01:40:58;;;;;;;6.47;4.97;;;;;;;;;;5049031;28;20036;-75
2021/10/25 01:43:24;;;;;;;7.00;5.05;;;;;;;;;;5045506;28;20021;-75
2021/10/25 01:45:49;;;;;;;7.53;5.00;;;;;;;;;;5050358;28;20106;-74
2021/10/25 01:48:14;;;;;;;7.32;4.70;;;;;;;;;;5045208;28;20024;-75
2021/10/25 01:50:40;;;;;;;8.68;5.07;;;;;;;;;;5049386;28;20461;-75
2021/10/25 01:53:06;;;;;;;7.00;4.57;;;;;;;;;;5042286;28;20158;-74
2021/10/25 01:55:31;;;;;;;7.43;4.55;;;;;;;;;;5044307;28;20013;-75
2021/10/25 01:57:56;;;;;;;7.30;4.60;;;;;;;;;;5049589;28;20060;-74
2021/10/25 02:00:22;;;;;;;7.32;4.38;;;;;;;;;;5047795;28;20031;-75
2021/10/25 02:02:47;;;;;;;7.97;4.20;;;;;;;;;;5044639;28;20367;-74
2021/10/25 02:05:13;;;;;;;8.93;4.60;;;;;;;;;;5042312;28;20021;-75
2021/10/25 02:07:38;;;;;;;5.80;4.38;;;;;;;;;;5047900;28;20036;-75
2021/10/25 02:10:04;;;;;;;6.68;4.30;;;;;;;;;;5045411;28;20017;-75
2021/10/25 02:12:29;;;;;;;7.28;4.40;;;;;;;;;;5044853;28;20380;-76
2021/10/25 02:14:54;;;;;;;6.90;4.03;;;;;;;;;;5049168;28;20033;-74
2021/10/25 02:17:19;;;;;;;6.65;4.40;;;;;;;;;;5047813;28;20482;-74
2021/10/25 02:19:46;;;;;;;6.47;4.18;;;;;;;;;;5046102;28;20076;-74
2021/10/25 02:22:12;;;;;;;5.72;3.47;;;;;;;;;;5044242;28;20112;-74
2021/10/25 02:24:37;;;;;;;6.63;3.88;;;;;;;;;;5045501;28;20021;-74
2021/10/25 02:27:04;;;;;;;6.07;4.15;;;;;;;;;;5054195;28;20029;-74
2021/10/25 02:29:35;;;;;;;6.28;4.20;;;;;;;;;;5041007;28;20028;-74
2021/10/25 02:32:00;;;;;;;5.82;3.42;;;;;;;;;;5043310;28;20017;-75
2021/10/25 02:34:25;;;;;;;5.63;3.88;;;;;;;;;;5046156;28;20071;-75
2021/10/25 02:36:51;;;;;;;6.80;4.10;;;;;;;;;;5045962;28;20417;-73
2021/10/25 02:39:16;;;;;;;5.68;3.83;;;;;;;;;;5036040;28;20033;-74
2021/10/25 02:41:41;;;;;;;5.68;3.75;;;;;;;;;;5042532;28;20028;-75
2021/10/25 02:44:07;;;;;;;6.35;4.05;;;;;;;;;;5042623;28;20385;-73
2021/10/25 02:46:33;;;;;;;5.90;3.83;;;;;;;;;;5045548;28;20098;-73
2021/10/25 02:48:58;;;;;;;5.60;3.80;;;;;;;;;;5046759;28;20043;-72
2021/10/25 02:51:23;;;;;;;6.47;3.55;;;;;;;;;;5048020;28;20021;-73
2021/10/25 02:53:48;;;;;;;5.50;3.60;;;;;;;;;;5048793;28;20033;-72
2021/10/25 02:56:13;;;;;;;6.30;3.58;;;;;;;;;;5039732;28;20040;-74
2021/10/25 02:58:39;;;;;;;7.10;3.78;;;;;;;;;;5045573;28;20515;-73
2021/10/25 03:01:04;;;;;;;5.38;3.70;;;;;;;;;;5041526;28;20075;-73
2021/10/25 03:03:29;;;;;;;6.85;3.95;;;;;;;;;;5047650;28;20074;-73
2021/10/25 03:05:55;;;;;;;5.57;3.65;;;;;;;;;;5032775;28;20095;-72
2021/10/25 03:08:20;;;;;;;6.80;4.05;;;;;;;;;;5045960;28;20191;-72
2021/10/25 03:10:45;;;;;;;6.78;4.35;;;;;;;;;;5045801;28;20029;-72
2021/10/25 03:13:11;;;;;;;6.80;3.85;;;;;;;;;;5044678;28;20503;-72
2021/10/25 03:15:36;;;;;;;8.25;4.30;;;;;;;;;;5047495;28;20037;-72
2021/10/25 03:18:01;;;;;;;7.70;3.95;;;;;;;;;;5047587;28;20480;-72
2021/10/25 03:20:26;;;;;;;7.85;4.28;;;;;;;;;;5048765;28;20106;-72
2021/10/25 03:22:52;;;;;;;7.18;4.32;;;;;;;;;;5041184;28;20018;-72
2021/10/25 03:25:17;;;;;;;6.35;3.97;;;;;;;;;;5045358;28;20401;-72
2021/10/25 03:27:42;;;;;;;6.53;4.10;;;;;;;;;;5045882;28;20352;-72
2021/10/25 03:30:08;;;;;;;5.82;4.47;;;;;;;;;;5044881;28;20033;-73
2021/10/25 03:32:33;;;;;;;5.88;3.80;;;;;;;;;;5044688;28;20028;-72
2021/10/25 03:34:59;;;;;;;5.63;3.63;;;;;;;;;;5039533;28;20040;-73
2021/10/25 03:37:24;;;;;;;7.10;3.55;;;;;;;;;;5044137;28;20047;-72
2021/10/25 03:39:51;;;;;;;6.30;3.90;;;;;;;;;;5044263;28;20032;-72
2021/10/25 03:42:29;;;;;;;5.10;3.88;;;;;;;;;;5043084;28;20447;-72
2021/10/25 03:45:07;;;;;;;7.38;3.60;;;;;;;;;;5036155;28;20033;-72
2021/10/25 03:47:57;;;;;;;6.03;3.65;;;;;;;;;;5038620;28;20025;-71
2021/10/25 03:50:23;;;;;;;7.18;4.10;;;;;;;;;;5046630;28;20583;-73
2021/10/25 03:52:53;;;;;;;7.07;4.05;;;;;;;;;;5045951;28;20735;-72
2021/10/25 03:55:33;;;;;;;6.75;3.92;;;;;;;;;;5042435;28;20051;-72
2021/10/25 04:30:19;;;;;;;4.05;2.90;;;;;;;;;;5039718;28;20116;-73
2021/10/25 04:32:44;;;;;;;4.72;3.08;;;;;;;;;;5035735;28;20044;-72
2021/10/25 04:35:09;;;;;;;4.45;2.72;;;;;;;;;;5044162;28;20033;-72
2021/10/25 04:37:35;;;;;;;4.20;2.65;;;;;;;;;;5038995;28;20045;-71
2021/10/25 04:40:00;;;;;;;5.53;3.13;;;;;;;;;;5043841;28;20041;-72
2021/10/25 04:42:25;;;;;;;7.38;2.70;;;;;;;;;;5040400;28;20107;-72
2021/10/25 04:44:52;;;;;;;4.32;3.00;;;;;;;;;;5041441;28;20088;-72
2021/10/25 04:47:17;;;;;;;4.82;2.80;;;;;;;;;;5045045;28;20333;-71
2021/10/25 04:49:42;;;;;;;5.45;2.88;;;;;;;;;;5047387;28;20033;-72
2021/10/25 04:52:09;;;;;;;6.90;2.63;;;;;;;;;;5045132;28;20057;-73
2021/10/25 04:54:34;;;;;;;4.97;2.63;;;;;;;;;;5042756;28;20017;-73
2021/10/25 04:57:00;;;;;;;4.70;2.70;;;;;;;;;;5043657;28;20037;-74
2021/10/25 04:59:25;;;;;;;3.80;2.45;;;;;;;;;;5043887;28;20032;-73
2021/10/25 05:01:50;;;;;;;3.65;2.50;;;;;;;;;;5037732;28;20076;-74
2021/10/25 05:04:16;;;;;;;3.83;2.70;;;;;;;;;;5043417;28;20025;-73
2021/10/25 05:06:41;;;;;;;4.15;2.55;;;;;;;;;;5050516;28;20494;-72
2021/10/25 05:09:06;;;;;;;5.22;3.10;;;;;;;;;;5048998;28;20029;-72
2021/10/25 05:11:31;;;;;;;5.20;3.00;;;;;;;;;;5049026;28;20037;-72
2021/10/25 05:13:57;;;;;;;6.40;3.60;;;;;;;;;;5045943;28;20039;-74
2021/10/25 05:16:22;;;;;;;5.90;3.50;;;;;;;;;;5049132;28;20036;-72
2021/10/25 05:18:48;;;;;;;5.15;3.67;;;;;;;;;;5054399;28;20111;-73
2021/10/25 05:21:13;;;;;;;4.65;3.38;;;;;;;;;;5047364;28;20473;-67
2021/10/25 05:23:38;;;;;;;7.43;3.80;;;;;;;;;;5049093;28;20037;-68
2021/10/25 05:26:04;;;;;;;6.22;3.58;;;;;;;;;;5042570;28;20017;-66
2021/10/25 05:28:29;;;;;;;6.93;3.80;;;;;;;;;;5045350;28;20338;-67
2021/10/25 05:30:54;;;;;;;5.53;3.80;;;;;;;;;;5046544;28;20060;-67
2021/10/25 05:33:19;;;;;;;8.88;3.70;;;;;;;;;;5046445;28;20032;-68
2021/10/25 05:35:44;;;;;;;7.13;4.43;;;;;;;;;;5047736;28;20021;-67
2021/10/25 05:38:12;;;;;;;7.03;3.95;;;;;;;;;;5035041;28;20052;-67
2021/10/25 05:40:38;;;;;;;6.60;4.22;;;;;;;;;;5048568;28;20108;-67
2021/10/25 05:43:03;;;;;;;6.00;3.70;;;;;;;;;;5043032;28;20071;-66
2021/10/25 05:45:29;;;;;;;6.78;3.85;;;;;;;;;;5050895;28;20051;-66
2021/10/25 05:47:54;;;;;;;8.35;4.15;;;;;;;;;;5051069;28;20031;-66
2021/10/25 05:50:19;;;;;;;5.25;3.40;;;;;;;;;;5052282;28;20013;-66
2021/10/25 05:52:45;;;;;;;5.72;3.30;;;;;;;;;;5049793;28;20027;-66
2021/10/25 05:55:10;;;;;;;5.97;3.33;;;;;;;;;;5048396;28;20055;-65
2021/10/25 05:57:35;;;;;;;7.45;4.00;;;;;;;;;;5049757;28;20045;-66
2021/10/25 06:00:03;;;;;;;6.15;3.25;;;;;;;;;;5050111;28;20024;-66
2021/10/25 06:02:34;;;;;;;7.65;3.00;;;;;;;;;;5040148;28;20470;-67
2021/10/25 06:04:59;;;;;;;4.88;3.10;;;;;;;;;;5047542;28;20033;-66
2021/10/25 06:07:25;;;;;;;4.78;2.90;;;;;;;;;;5050740;28;20456;-66
2021/10/25 06:09:50;;;;;;;5.95;3.63;;;;;;;;;;5045140;28;20022;-67
2021/10/25 06:12:18;;;;;;;5.63;2.80;;;;;;;;;;5043566;28;20055;-67
2021/10/25 06:14:45;;;;;;;5.70;2.92;;;;;;;;;;5041546;28;20397;-66
2021/10/25 06:17:38;;;;;;;4.50;2.90;;;;;;;;;;5049019;28;20107;-67
2021/10/25 06:20:04;;;;;;;6.00;2.97;;;;;;;;;;5049809;28;20056;-67
2021/10/25 06:22:31;;;;;;;18.38;4.20;;;;;;;;;;5043438;28;20017;-67
2021/10/25 06:24:56;;;;;;;11.20;3.75;;;;;;;;;;5048673;28;20048;-66
2021/10/25 06:27:22;;;;;;;17.42;4.50;;;;;;;;;;5047871;28;20414;-66
2021/10/25 06:29:47;;;;;;;11.88;4.38;;;;;;;;;;5049585;28;20100;-66
2021/10/25 06:32:12;;;;;;;11.70;3.80;;;;;;;;;;5049480;28;20029;-64
2021/10/25 06:34:40;;;;;;;7.50;3.60;;;;;;;;;;5045752;28;20033;-66
2021/10/25 06:37:05;;;;;;;10.35;4.20;;;;;;;;;;5044849;28;20064;-67
2021/10/25 06:39:37;;;;;;;10.15;4.40;;;;;;;;;;5049475;28;20021;-67
2021/10/25 06:42:03;;;;;;;9.82;4.50;;;;;;;;;;5049631;28;20098;-66
2021/10/25 06:44:28;;;;;;;8.57;4.25;;;;;;;;;;5049275;28;20071;-66
2021/10/25 06:46:54;;;;;;;7.68;4.45;;;;;;;;;;5044229;28;20025;-67
2021/10/25 06:49:19;;;;;;;10.32;3.92;;;;;;;;;;5054236;28;20023;-65
2021/10/25 06:51:44;;;;;;;11.48;4.65;;;;;;;;;;5050050;28;20443;-67
2021/10/25 06:54:10;;;;;;;9.85;4.40;;;;;;;;;;5049462;28;20060;-67
2021/10/25 06:56:35;;;;;;;10.25;5.00;;;;;;;;;;5049713;28;20074;-67
2021/10/25 06:59:00;;;;;;;11.27;4.35;;;;;;;;;;5042635;28;20033;-66
2021/10/25 07:01:26;;;;;;;8.50;3.95;;;;;;;;;;5049883;28;20612;-66
2021/10/25 07:03:52;;;;;;;10.35;4.47;;;;;;;;;;5049540;28;20518;-67
2021/10/25 07:06:17;;;;;;;13.15;4.70;;;;;;;;;;5049597;28;20100;-68
2021/10/25 07:08:45;;;;;;;8.88;4.38;;;;;;;;;;5048948;28;20091;-66
2021/10/25 07:11:12;;;;;;;10.07;3.90;;;;;;;;;;5048038;28;20024;-67
2021/10/25 07:13:44;;;;;;;15.63;4.55;;;;;;;;;;5049412;28;20029;-68
2021/10/25 07:16:18;;;;;;;8.90;4.50;;;;;;;;;;5049902;28;20029;-66
2021/10/25 07:19:12;;;;;;;12.55;4.63;;;;;;;;;;5046694;28;20079;-66
2021/10/25 07:21:54;;;;;;;9.65;4.65;;;;;;;;;;5042708;28;20021;-68
2021/10/25 07:27:29;;;;;;;8.88;4.30;;;;;;;;;;5049066;28;20114;-68
2021/10/25 08:10:04;;;;;;;11.02;3.80;;;;;;;;;;5061668;28;20024;-67
2021/10/25 08:12:30;;;;;;;12.35;4.03;;;;;;;;;;5056767;28;20511;-67
2021/10/25 08:15:00;;;;;;;10.23;4.22;;;;;;;;;;5048500;28;20017;-67
2021/10/25 08:17:36;;;;;;;9.48;4.25;;;;;;;;;;5048178;28;20036;-66
2021/10/25 08:20:05;;;;;;;8.88;4.72;;;;;;;;;;5053026;28;20484;-67
2021/10/25 08:22:30;;;;;;;15.13;4.70;;;;;;;;;;5048025;28;20028;-67
2021/10/25 08:24:55;;;;;;;7.78;4.32;;;;;;;;;;5048514;28;20029;-67
2021/10/25 08:27:21;;;;;;;9.63;4.50;;;;;;;;;;5048209;28;20123;-66
2021/10/25 08:29:48;;;;;;;8.50;3.90;;;;;;;;;;5048704;28;20025;-67
2021/10/25 08:34:57;;;;;;;7.88;4.15;;;;;;;;;;5048457;28;20021;-66
2021/10/25 08:39:57;;;;;;;6.32;3.55;;;;;;;;;;5048696;28;20111;-67
2021/10/25 08:42:28;;;;;;;7.80;3.30;;;;;;;;;;5050503;28;20017;-66
2021/10/25 08:44:59;;;;;;;5.78;2.90;;;;;;;;;;5052107;28;20040;-66
2021/10/25 08:47:28;;;;;;;5.43;2.83;;;;;;;;;;5052178;28;20021;-67
2021/10/25 08:49:55;;;;;;;7.57;2.78;;;;;;;;;;5056820;28;20503;-67
2021/10/25 08:52:22;;;;;;;4.25;2.53;;;;;;;;;;5050849;28;20029;-68
2021/10/25 08:54:48;;;;;;;5.25;2.80;;;;;;;;;;5049434;28;20091;-67
2021/10/25 08:57:13;;;;;;;4.43;2.50;;;;;;;;;;5049821;28;20408;-67
2021/10/25 08:59:39;;;;;;;4.45;2.67;;;;;;;;;;5052040;28;20036;-67
2021/10/25 09:02:08;;;;;;;7.70;2.80;;;;;;;;;;5051737;28;20028;-67
2021/10/25 09:04:33;;;;;;;4.45;2.95;;;;;;;;;;5050338;28;20124;-67
2021/10/25 09:06:58;;;;;;;3.35;2.00;;;;;;;;;;5052088;28;20508;-66
2021/10/25 09:09:24;;;;;;;4.13;2.40;;;;;;;;;;5051458;28;20025;-67
2021/10/25 09:12:00;;;;;;;3.80;2.08;;;;;;;;;;5051829;28;20096;-66
2021/10/25 09:14:25;;;;;;;5.72;1.90;;;;;;;;;;5049920;28;20116;-68
2021/10/25 09:16:55;;;;;;;4.40;2.47;;;;;;;;;;5051293;28;20097;-67
2021/10/25 09:19:21;;;;;;;4.55;1.83;;;;;;;;;;5053718;28;20048;-66
2021/10/25 09:21:46;;;;;;;4.25;2.25;;;;;;;;;;5051475;28;20013;-66
2021/10/25 09:24:19;;;;;;;3.17;1.90;;;;;;;;;;5047237;28;20017;-67
2021/10/25 09:26:44;;;;;;;3.22;2.13;;;;;;;;;;5050697;28;20109;-67
2021/10/25 09:29:09;;;;;;;4.30;2.42;;;;;;;;;;5051565;28;20033;-67
2021/10/25 09:31:35;;;;;;;3.42;2.30;;;;;;;;;;5050893;28;20116;-67
2021/10/25 09:34:05;;;;;;;5.28;2.30;;;;;;;;;;5050760;28;20151;-67
2021/10/25 09:36:36;;;;;;;4.38;2.45;;;;;;;;;;5049916;28;20457;-67
2021/10/25 09:49:56;;;;;;;5.03;2.92;;;;;;;;;;5049229;28;20435;-66
2021/10/25 09:52:29;;;;;;;6.80;3.40;;;;;;;;;;5050279;28;20021;-66
2021/10/25 09:54:56;;;;;;;6.35;3.97;;;;;;;;;;5050905;28;20053;-66
2021/10/25 09:57:25;;;;;;;8.73;3.88;;;;;;;;;;5049643;28;20442;-66
2021/10/25 09:59:57;;;;;;;9.98;4.70;;;;;;;;;;5050770;28;20476;-67
2021/10/25 10:02:22;;;;;;;9.57;5.03;;;;;;;;;;5050576;28;20049;-68
2021/10/25 10:05:01;;;;;;;8.02;5.03;;;;;;;;;;5050516;28;20079;-67
2021/10/25 10:07:27;;;;;;;10.13;5.10;;;;;;;;;;5049419;28;20033;-67
2021/10/25 10:09:53;;;;;;;9.80;5.22;;;;;;;;;;5050572;28;20492;-67
2021/10/25 10:12:20;;;;;;;10.90;5.35;;;;;;;;;;5044464;28;20084;-66
2021/10/25 10:14:46;;;;;;;8.52;4.35;;;;;;;;;;5050397;28;20443;-65
2021/10/25 10:17:12;;;;;;;10.95;4.68;;;;;;;;;;5048468;28;20078;-66
2021/10/25 10:19:37;;;;;;;11.70;5.68;;;;;;;;;;5055916;28;20052;-67
2021/10/25 10:22:04;;;;;;;8.75;5.28;;;;;;;;;;5050738;28;20025;-67
2021/10/25 10:24:31;;;;;;;9.20;4.68;;;;;;;;;;5050203;28;20098;-66
2021/10/25 10:26:58;;;;;;;9.68;4.65;;;;;;;;;;5049926;28;20017;-67
2021/10/25 10:29:24;;;;;;;12.48;4.50;;;;;;;;;;5048413;28;20028;-66
2021/10/25 10:31:59;;;;;;;12.15;4.90;;;;;;;;;;5050162;28;20120;-66
2021/10/25 10:34:24;;;;;;;7.68;4.30;;;;;;;;;;5050021;28;20021;-66
2021/10/25 10:36:51;;;;;;;7.82;4.35;;;;;;;;;;5050198;28;20032;-66
2021/10/25 10:39:17;;;;;;;8.40;4.57;;;;;;;;;;5047808;28;20079;-67
2021/10/25 10:41:45;;;;;;;12.05;4.65;;;;;;;;;;5049348;28;20048;-67
2021/10/25 10:44:14;;;;;;;8.02;4.30;;;;;;;;;;5049740;28;20070;-66
2021/10/25 10:46:40;;;;;;;6.00;3.85;;;;;;;;;;5049676;28;20047;-67
2021/10/25 10:49:18;;;;;;;10.07;5.88;;;;;;;;;;5051551;28;20030;-66
2021/10/25 10:51:43;;;;;;;20.23;10.25;;;;;;;;;;5036084;28;20029;-67
2021/10/25 10:54:19;;;;;;;14.63;8.95;;;;;;;;;;5036890;28;20017;-68
2021/10/25 10:56:55;;;;;;;10.80;4.82;;;;;;;;;;5034378;28;20071;-67
2021/10/25 10:59:34;;;;;;;12.73;5.47;;;;;;;;;;5041167;28;20090;-67
2021/10/25 11:02:00;;;;;;;8.00;4.28;;;;;;;;;;5036516;28;20017;-67
2021/10/25 11:04:29;;;;;;;7.18;4.20;;;;;;;;;;5036718;28;20079;-67
2021/10/25 11:06:59;;;;;;;8.40;3.90;;;;;;;;;;5044139;28;20358;-67
2021/10/25 11:09:26;;;;;;;8.00;4.00;;;;;;;;;;5035765;28;20017;-66
2021/10/25 11:11:56;;;;;;;9.98;4.82;;;;;;;;;;5036359;28;20021;-66
2021/10/25 11:14:27;;;;;;;;;;;;;;;;;;5034842;28;20063;-66
2021/10/25 11:17:25;;;;;;;6.40;3.70;;;;;;;;;;5038397;28;19952;-66
2021/10/25 11:19:51;;;;;;;8.13;3.67;;;;;;;;;;5035456;28;20552;-67
2021/10/25 11:22:39;;;;;;;7.57;4.50;;;;;;;;;;5033476;28;20097;-67
2021/10/25 11:25:06;;;;;;;8.38;4.47;;;;;;;;;;5036309;28;20018;-66
2021/10/25 11:27:32;;;;;;;7.68;4.32;;;;;;;;;;5033464;28;20026;-67
2021/10/25 11:30:07;;;;;;;8.95;4.72;;;;;;;;;;5039122;28;20030;-67
2021/10/25 11:32:33;;;;;;;7.35;4.82;;;;;;;;;;5046613;28;20028;-67
2021/10/25 11:34:59;;;;;;;7.00;4.10;;;;;;;;;;5048661;28;20017;-66
2021/10/25 11:37:26;;;;;;;8.93;5.00;;;;;;;;;;5048277;28;20032;-68
2021/10/25 11:40:12;;;;;;;8.75;4.68;;;;;;;;;;5049186;28;20033;-66
2021/10/25 11:42:39;;;;;;;7.03;4.22;;;;;;;;;;5049135;28;20099;-65
2021/10/25 11:45:10;;;;;;;9.20;4.38;;;;;;;;;;5048822;28;20044;-65
2021/10/25 11:47:38;;;;;;;7.40;4.60;;;;;;;;;;5048404;28;20043;-64
2021/10/25 11:50:05;;;;;;;7.50;4.25;;;;;;;;;;5047208;28;20043;-65
2021/10/25 11:52:43;;;;;;;9.52;4.78;;;;;;;;;;5048511;28;20027;-64
2021/10/25 11:55:10;;;;;;;7.00;3.65;;;;;;;;;;5048635;28;20075;-65
2021/10/25 11:57:36;;;;;;;6.35;4.00;;;;;;;;;;5046879;28;20492;-64
2021/10/25 12:00:07;;;;;;;8.30;4.25;;;;;;;;;;5048563;28;20178;-65
2021/10/25 12:02:33;;;;;;;13.27;4.57;;;;;;;;;;5048343;28;20148;-65
2021/10/25 12:04:58;;;;;;;7.18;3.70;;;;;;;;;;5045904;28;20036;-65
2021/10/25 12:07:24;;;;;;;8.93;4.20;;;;;;;;;;5044518;28;20031;-65
2021/10/25 12:09:55;;;;;;;6.80;4.18;;;;;;;;;;5044957;28;20089;-65
2021/10/25 12:12:20;;;;;;;5.28;3.47;;;;;;;;;;5046696;28;20048;-65
2021/10/25 12:14:47;;;;;;;7.97;3.63;;;;;;;;;;5050267;28;20052;-65
2021/10/25 12:17:16;;;;;;;7.25;3.90;;;;;;;;;;5050125;28;20026;-65
2021/10/25 12:19:43;;;;;;;5.97;3.53;;;;;;;;;;5053476;28;20033;-66
2021/10/25 12:22:10;;;;;;;6.50;3.70;;;;;;;;;;5051642;28;20044;-65
2021/10/25 12:24:39;;;;;;;7.65;3.85;;;;;;;;;;5047393;28;20017;-64
2021/10/25 12:27:05;;;;;;;7.27;3.90;;;;;;;;;;5043472;28;20026;-65
2021/10/25 12:29:30;;;;;;;5.97;3.30;;;;;;;;;;5050576;28;21059;-65
2021/10/25 12:32:06;;;;;;;6.75;3.78;;;;;;;;;;5049542;28;20020;-65
2021/10/25 12:34:31;;;;;;;4.68;3.08;;;;;;;;;;5051513;28;20078;-62
2021/10/25 12:36:57;;;;;;;6.32;3.30;;;;;;;;;;5052343;28;20017;-60
2021/10/25 12:39:23;;;;;;;6.30;3.38;;;;;;;;;;5051013;28;20075;-63
2021/10/25 12:41:51;;;;;;;7.45;3.47;;;;;;;;;;5052345;28;20017;-63
2021/10/25 12:44:23;;;;;;;6.95;3.22;;;;;;;;;;5041340;28;20504;-63
2021/10/25 12:46:48;;;;;;;5.65;3.35;;;;;;;;;;5051857;28;20484;-61
2021/10/25 12:49:18;;;;;;;7.85;3.92;;;;;;;;;;5050049;28;20053;-62
2021/10/25 12:51:44;;;;;;;5.65;3.65;;;;;;;;;;5050377;28;20380;-61
2021/10/25 12:54:11;;;;;;;6.38;3.60;;;;;;;;;;5051581;28;20052;-61
2021/10/25 12:56:37;;;;;;;7.78;3.85;;;;;;;;;;5051712;28;20024;-62
2021/10/25 12:59:09;;;;;;;5.95;3.65;;;;;;;;;;5043880;28;20160;-61
2021/10/25 13:01:35;;;;;;;6.22;3.67;;;;;;;;;;5043654;28;20508;-62
2021/10/25 13:04:02;;;;;;;7.60;3.88;;;;;;;;;;5052290;28;20060;-61
2021/10/25 13:06:31;;;;;;;6.28;3.80;;;;;;;;;;5047695;28;20024;-62
2021/10/25 13:09:00;;;;;;;7.15;4.07;;;;;;;;;;5050228;28;20029;-61
2021/10/25 13:11:26;;;;;;;7.63;4.15;;;;;;;;;;5048178;28;20021;-62
2021/10/25 13:13:51;;;;;;;7.15;3.97;;;;;;;;;;5047521;28;20032;-62
2021/10/25 13:16:18;;;;;;;8.27;4.38;;;;;;;;;;5040076;28;20017;-61
2021/10/25 13:18:43;;;;;;;8.73;4.50;;;;;;;;;;5049708;28;20431;-61
2021/10/25 13:21:08;;;;;;;6.80;4.20;;;;;;;;;;5051396;28;20054;-61
2021/10/25 13:23:36;;;;;;;7.97;3.90;;;;;;;;;;5050512;28;20021;-61
2021/10/25 13:26:02;;;;;;;6.63;3.90;;;;;;;;;;5050635;28;20021;-61
2021/10/25 13:28:27;;;;;;;5.47;3.83;;;;;;;;;;5048839;28;20594;-61
2021/10/25 13:30:52;;;;;;;7.78;4.18;;;;;;;;;;5048451;28;20140;-61
2021/10/25 13:33:18;;;;;;;6.65;4.53;;;;;;;;;;5051286;28;20484;-61
2021/10/25 13:35:43;;;;;;;10.18;4.68;;;;;;;;;;5050517;28;20051;-64
2021/10/25 13:38:09;;;;;;;8.05;4.80;;;;;;;;;;5048056;28;20377;-61
2021/10/25 13:40:34;;;;;;;10.38;4.55;;;;;;;;;;5046517;28;20044;-61
2021/10/25 13:43:01;;;;;;;11.43;4.47;;;;;;;;;;5048674;28;20096;-61
2021/10/25 13:45:27;;;;;;;7.43;4.55;;;;;;;;;;5048465;28;20025;-61
2021/10/25 13:47:52;;;;;;;7.65;4.00;;;;;;;;;;5043382;28;20036;-62
2021/10/25 13:50:17;;;;;;;8.32;4.38;;;;;;;;;;5056479;28;20025;-61
2021/10/25 13:52:43;;;;;;;9.85;4.68;;;;;;;;;;5049904;28;20035;-62
2021/10/25 13:55:08;;;;;;;8.07;4.57;;;;;;;;;;5048696;28;20029;-61
2021/10/25 13:57:38;;;;;;;12.13;6.47;;;;;;;;;;5045837;28;20048;-61
2021/10/25 14:00:11;;;;;;;15.48;8.10;;;;;;;;;;5050876;28;20108;-62
2021/10/25 14:02:37;;;;;;;14.20;9.40;;;;;;;;;;5050758;28;20101;-61
2021/10/25 14:05:05;;;;;;;21.73;9.80;;;;;;;;;;5047058;28;20033;-62
2021/10/25 14:07:32;;;;;;;17.48;9.85;;;;;;;;;;5050117;28;20472;-62
2021/10/25 14:10:07;;;;;;;15.68;9.48;;;;;;;;;;5050823;28;20021;-60
2021/10/25 14:12:33;;;;;;;14.50;8.35;;;;;;;;;;5044169;28;20044;-61
2021/10/25 14:15:24;;;;;;;14.95;9.30;;;;;;;;;;5039876;28;20093;-62
2021/10/25 14:17:45;;;;;;;17.70;10.00;;;;;;;;;;5049920;28;20103;-61
2021/10/25 14:20:11;;;;;;;16.33;9.13;;;;;;;;;;5053995;28;20021;-62
2021/10/25 14:22:36;;;;;;;19.85;11.25;;;;;;;;;;5049866;28;20031;-60
2021/10/25 14:25:01;;;;;;;16.27;10.55;;;;;;;;;;5050326;28;20016;-62
2021/10/25 14:27:28;;;;;;;15.43;8.73;;;;;;;;;;5048572;28;20025;-61
2021/10/25 14:29:53;;;;;;;14.80;9.60;;;;;;;;;;5050502;28;20020;-62
2021/10/25 14:32:18;;;;;;;18.10;8.38;;;;;;;;;;5049985;28;20427;-61
2021/10/25 14:34:43;;;;;;;15.80;8.48;;;;;;;;;;5049117;28;20044;-61
2021/10/25 14:37:10;;;;;;;11.25;7.50;;;;;;;;;;5046959;28;20013;-62
2021/10/25 14:39:40;;;;;;;17.02;8.23;;;;;;;;;;5049835;28;20540;-62
2021/10/25 14:42:23;;;;;;;;;;;;;;;;;;5050150;28;20075;-60
2021/10/25 14:45:05;;;;;;;13.25;6.95;;;;;;;;;;5044499;28;19958;-61
2021/10/25 14:58:06;;;;;;;12.38;7.18;;;;;;;;;;5042682;28;20148;-62
2021/10/25 15:00:32;;;;;;;14.98;7.43;;;;;;;;;;5049618;28;20698;-62
2021/10/25 15:02:57;;;;;;;15.52;9.82;;;;;;;;;;5049639;28;20087;-62
2021/10/25 15:05:22;;;;;;;16.65;8.02;;;;;;;;;;5049363;28;20392;-62
2021/10/25 15:07:48;;;;;;;15.35;8.20;;;;;;;;;;5048605;28;20029;-62
2021/10/25 15:10:13;;;;;;;13.13;7.45;;;;;;;;;;5049426;28;20498;-61
2021/10/25 15:12:38;;;;;;;13.68;7.57;;;;;;;;;;5047737;28;20510;-63
2021/10/25 15:15:04;;;;;;;13.85;8.68;;;;;;;;;;5049585;28;20408;-62
2021/10/25 15:17:30;;;;;;;14.93;7.15;;;;;;;;;;5049064;28;20024;-61
2021/10/25 15:19:55;;;;;;;13.00;7.45;;;;;;;;;;5045678;28;20399;-61
2021/10/25 15:22:21;;;;;;;14.13;7.03;;;;;;;;;;5048949;28;20027;-62
2021/10/25 15:24:56;;;;;;;13.30;7.78;;;;;;;;;;5049212;28;20396;-62
2021/10/25 15:27:22;;;;;;;14.32;7.40;;;;;;;;;;5049263;28;20029;-62
2021/10/25 15:29:55;;;;;;;13.93;7.90;;;;;;;;;;5047390;28;20021;-62
2021/10/25 15:32:22;;;;;;;15.75;7.57;;;;;;;;;;5049097;28;20028;-61
2021/10/25 15:34:48;;;;;;;11.98;7.50;;;;;;;;;;5048439;28;20527;-62
2021/10/25 15:37:14;;;;;;;11.07;7.20;;;;;;;;;;5049046;28;20032;-62
2021/10/25 15:39:40;;;;;;;13.27;7.80;;;;;;;;;;5048235;28;20043;-62
2021/10/25 15:42:06;;;;;;;18.67;8.38;;;;;;;;;;5047175;28;20104;-62
2021/10/25 15:44:32;;;;;;;15.15;7.97;;;;;;;;;;5048522;28;20047;-60
2021/10/25 15:46:57;;;;;;;13.45;7.55;;;;;;;;;;5049177;28;20381;-61
2021/10/25 15:49:22;;;;;;;14.07;7.82;;;;;;;;;;5051704;28;20039;-62
2021/10/25 15:51:49;;;;;;;14.57;8.50;;;;;;;;;;5046808;28;20109;-62
2021/10/25 15:54:15;;;;;;;20.95;8.02;;;;;;;;;;5049101;28;20036;-62
2021/10/25 15:56:44;;;;;;;18.20;7.95;;;;;;;;;;5048267;28;20033;-62
2021/10/25 15:59:11;;;;;;;17.63;8.63;;;;;;;;;;5048581;28;20131;-61
2021/10/25 16:01:36;;;;;;;16.88;10.00;;;;;;;;;;5044303;28;20110;-60
2021/10/25 16:04:02;;;;;;;17.45;9.40;;;;;;;;;;5047105;28;20119;-62
2021/10/25 16:06:28;;;;;;;32.75;11.35;;;;;;;;;;5048693;28;20053;-61
2021/10/25 16:08:53;;;;;;;20.10;11.32;;;;;;;;;;5048159;28;20023;-62
2021/10/25 16:11:19;;;;;;;20.23;12.32;;;;;;;;;;5048855;28;20057;-62
2021/10/25 16:13:44;;;;;;;23.95;12.00;;;;;;;;;;5044686;28;20130;-61
2021/10/25 16:16:09;;;;;;;16.63;9.60;;;;;;;;;;5048361;28;20021;-62
2021/10/25 16:18:36;;;;;;;22.80;10.93;;;;;;;;;;5050199;28;20033;-63
2021/10/25 16:21:02;;;;;;;21.92;10.80;;;;;;;;;;5047394;28;20023;-62
2021/10/25 16:23:27;;;;;;;25.98;11.32;;;;;;;;;;5045435;28;20025;-63